Time;durP1;ratioP1;P1;durP2;ratioP2;P2;SDS_P1;SDS_P2;PMS_P1;PMS_P2;Temp;Humidity;BMP_temperature;BMP_pressure;BME280_temperature;BME280_humidity;BME280_pressure;Samples;Min_cycle;Max_cycle;Signal;HPM_P1;HPM_P2
2022/10/04 00:00:36;;;;;;;17.13;12.23;;;12.00;99.90;;;;;;5059014;28;20052;-60
2022/10/04 00:03:11;;;;;;;20.98;12.05;;;12.00;99.90;;;;;;5052803;28;20051;-60
2022/10/04 00:05:47;;;;;;;24.70;13.50;;;12.00;99.90;;;;;;5054988;28;20385;-61
2022/10/04 00:08:35;;;;;;;22.10;12.52;;;12.00;99.90;;;;;;5060593;28;20619;-61
2022/10/04 00:11:12;;;;;;;22.67;12.82;;;12.00;99.90;;;;;;5063541;28;20052;-62
2022/10/04 00:13:39;;;;;;;23.35;12.65;;;12.00;99.90;;;;;;5063445;28;20099;-61
2022/10/04 00:16:06;;;;;;;22.75;13.75;;;12.00;99.90;;;;;;5062379;28;20127;-60
2022/10/04 00:18:44;;;;;;;21.13;12.45;;;12.10;99.90;;;;;;5055177;28;20141;-60
2022/10/04 00:21:10;;;;;;;22.35;12.65;;;12.00;99.90;;;;;;5067031;28;20059;-61
2022/10/04 00:23:35;;;;;;;18.88;12.43;;;12.00;99.90;;;;;;5057910;28;20052;-62
2022/10/04 00:26:33;;;;;;;18.77;12.65;;;12.00;99.90;;;;;;5062089;28;20827;-58
2022/10/04 00:29:38;;;;;;;24.27;13.02;;;12.00;99.90;;;;;;5056863;28;20468;-61
2022/10/04 00:32:10;;;;;;;24.42;13.63;;;12.00;99.90;;;;;;5057000;28;20127;-61
2022/10/04 00:34:49;;;;;;;20.55;13.52;;;12.00;99.90;;;;;;5061770;28;20055;-61
2022/10/04 00:37:18;;;;;;;23.73;13.77;;;12.00;99.90;;;;;;5062423;28;20048;-62
2022/10/04 00:39:54;;;;;;;23.48;13.27;;;12.00;99.90;;;;;;5062580;28;20052;-60
2022/10/04 00:42:51;;;;;;;25.67;13.43;;;12.00;99.90;;;;;;5062690;28;20351;-61
2022/10/04 00:46:04;;;;;;;21.23;12.93;;;12.00;99.90;;;;;;5067979;28;20118;-61
2022/10/04 00:48:55;;;;;;;18.40;12.50;;;11.90;99.90;;;;;;4989270;28;20202;-61
2022/10/04 00:51:44;;;;;;;23.77;12.00;;;12.00;99.90;;;;;;4984894;28;20058;-60
2022/10/04 00:54:13;;;;;;;22.08;12.85;;;12.00;99.90;;;;;;4962318;28;20561;-61
2022/10/04 00:57:03;;;;;;;23.30;13.00;;;12.00;99.90;;;;;;4986378;28;20552;-61
2022/10/04 00:59:37;;;;;;;22.23;12.27;;;12.00;99.90;;;;;;4974220;28;20587;-61
2022/10/04 01:02:29;;;;;;;22.60;13.10;;;12.00;99.90;;;;;;4979966;28;20494;-59
2022/10/04 01:05:06;;;;;;;20.38;13.40;;;12.00;99.90;;;;;;4964236;28;20490;-61
2022/10/04 01:07:45;;;;;;;23.52;13.23;;;12.00;99.90;;;;;;4963523;28;20070;-60
2022/10/04 01:10:18;;;;;;;27.48;14.32;;;12.00;99.90;;;;;;4987383;28;20061;-62
2022/10/04 01:13:24;;;;;;;19.75;13.68;;;12.00;99.90;;;;;;4995632;28;20062;-61
2022/10/04 01:16:15;;;;;;;22.65;14.07;;;11.90;99.90;;;;;;4978512;28;20599;-61
2022/10/04 01:18:41;;;;;;;21.10;13.32;;;12.00;99.90;;;;;;4999993;28;20056;-60
2022/10/04 01:21:19;;;;;;;21.98;13.75;;;11.90;99.90;;;;;;5074421;28;20129;-61
2022/10/04 01:23:56;;;;;;;19.10;11.82;;;11.90;99.90;;;;;;5044322;28;20103;-61
2022/10/04 01:26:28;;;;;;;20.30;12.90;;;12.00;99.90;;;;;;5059172;28;20056;-60
2022/10/04 02:01:20;;;;;;;24.25;12.63;;;11.50;99.90;;;;;;5061406;28;20055;-61
2022/10/04 02:04:04;;;;;;;19.92;11.70;;;11.40;99.90;;;;;;5021798;28;20060;-61
2022/10/04 02:06:36;;;;;;;17.63;12.10;;;11.30;99.90;;;;;;5036928;28;20048;-62
2022/10/04 02:09:17;;;;;;;19.83;11.25;;;11.30;99.90;;;;;;5040988;28;20049;-62
2022/10/04 02:11:45;;;;;;;18.85;11.05;;;11.20;99.90;;;;;;5039282;28;20056;-60
2022/10/04 02:14:17;;;;;;;16.73;11.48;;;11.20;99.90;;;;;;5041102;28;20053;-61
2022/10/04 02:16:46;;;;;;;17.20;12.50;;;11.10;99.90;;;;;;5041054;28;20499;-61
2022/10/04 02:19:13;;;;;;;15.95;10.95;;;11.00;99.90;;;;;;5040017;28;20056;-61
2022/10/04 02:21:39;;;;;;;22.42;13.07;;;11.00;99.90;;;;;;5038464;28;20511;-61
2022/10/04 02:24:07;;;;;;;19.17;12.27;;;11.00;99.90;;;;;;5040144;28;20053;-60
2022/10/04 02:26:33;;;;;;;22.75;12.48;;;10.90;99.90;;;;;;5046432;28;20423;-60
2022/10/04 02:28:58;;;;;;;22.60;11.98;;;10.90;99.90;;;;;;5030489;28;20057;-61
2022/10/04 02:34:30;;;;;;;19.08;11.63;;;10.80;99.90;;;;;;5000729;28;20048;-61
2022/10/04 02:36:57;;;;;;;29.98;14.55;;;10.80;99.90;;;;;;5001271;28;20517;-61
2022/10/04 02:39:26;;;;;;;20.00;11.95;;;10.70;99.90;;;;;;4989965;28;20168;-60
2022/10/04 02:42:10;;;;;;;19.88;13.60;;;10.70;99.90;;;;;;5004304;28;20128;-61
2022/10/04 02:44:43;;;;;;;18.73;12.63;;;10.60;99.90;;;;;;5005507;28;20054;-61
2022/10/04 02:47:12;;;;;;;20.48;12.48;;;10.60;99.90;;;;;;5003638;28;20142;-61
2022/10/04 02:49:44;;;;;;;20.02;13.02;;;10.60;99.90;;;;;;5013793;28;20107;-60
2022/10/04 02:52:30;;;;;;;24.00;13.18;;;10.50;99.90;;;;;;4997817;28;20510;-61
2022/10/04 02:55:09;;;;;;;19.88;14.07;;;10.50;99.90;;;;;;5006942;28;20053;-61
2022/10/04 02:57:35;;;;;;;22.58;14.52;;;10.40;99.90;;;;;;5015489;28;20055;-60
2022/10/04 03:00:12;;;;;;;24.33;14.30;;;10.40;99.90;;;;;;5010157;28;20535;-61
2022/10/04 03:02:39;;;;;;;21.23;14.48;;;10.40;99.90;;;;;;5008790;28;20085;-60
2022/10/04 03:05:11;;;;;;;25.00;14.77;;;10.40;99.90;;;;;;5046522;28;20048;-60
2022/10/04 03:07:38;;;;;;;22.70;15.05;;;10.40;99.90;;;;;;5065747;28;20127;-61
2022/10/04 03:10:11;;;;;;;25.70;15.13;;;10.30;99.90;;;;;;5044230;28;20491;-61
2022/10/04 03:12:38;;;;;;;25.77;15.00;;;10.30;99.90;;;;;;5052169;28;20056;-61
2022/10/04 03:15:11;;;;;;;25.48;15.77;;;10.30;99.90;;;;;;5062470;28;20495;-60
2022/10/04 03:17:39;;;;;;;;;;;10.30;99.90;;;;;;5051248;28;20117;-61
2022/10/04 03:20:05;;;;;;;25.35;14.25;;;10.20;99.90;;;;;;5057895;28;20598;-62
2022/10/04 03:22:31;;;;;;;17.67;13.07;;;10.20;99.90;;;;;;5058515;28;20097;-59
2022/10/04 03:24:58;;;;;;;28.10;15.57;;;10.20;99.90;;;;;;5061319;28;20044;-60
2022/10/04 03:27:35;;;;;;;19.60;13.77;;;10.10;99.90;;;;;;5059380;28;20056;-61
2022/10/04 03:30:01;;;;;;;20.50;14.65;;;10.10;99.90;;;;;;5058576;28;20064;-60
2022/10/04 03:32:29;;;;;;;22.83;15.23;;;10.10;99.90;;;;;;5061923;28;20052;-60
2022/10/04 03:35:01;;;;;;;25.17;15.68;;;10.00;99.90;;;;;;5052203;28;20109;-61
2022/10/04 03:37:30;;;;;;;26.13;16.15;;;10.00;99.90;;;;;;5058278;28;20088;-61
2022/10/04 03:39:57;;;;;;;31.35;15.68;;;10.00;99.90;;;;;;5062667;28;20062;-61
2022/10/04 03:42:33;;;;;;;27.65;16.88;;;10.00;99.90;;;;;;5065712;28;20055;-60
2022/10/04 03:45:01;;;;;;;26.08;16.10;;;10.00;99.90;;;;;;5061761;28;20063;-60
2022/10/04 03:47:31;;;;;;;24.60;16.73;;;10.00;99.90;;;;;;5058701;28;20041;-60
2022/10/04 03:50:15;;;;;;;27.98;18.08;;;10.00;99.90;;;;;;5058537;28;20578;-60
2022/10/04 03:52:49;;;;;;;28.67;16.92;;;10.00;99.90;;;;;;5054608;28;20096;-61
2022/10/04 03:55:17;;;;;;;26.33;16.70;;;10.00;99.90;;;;;;5037324;28;20653;-61
2022/10/04 03:57:43;;;;;;;28.10;17.27;;;10.00;99.90;;;;;;5060615;28;20060;-60
2022/10/04 04:00:13;;;;;;;30.77;17.27;;;9.90;99.90;;;;;;5061994;28;20048;-60
2022/10/04 04:02:49;;;;;;;31.15;18.55;;;9.90;99.90;;;;;;5060387;28;20061;-61
2022/10/04 04:05:28;;;;;;;29.30;17.48;;;9.90;99.90;;;;;;5061079;28;20138;-61
2022/10/04 04:08:11;;;;;;;28.27;18.95;;;9.90;99.90;;;;;;5058611;28;20134;-60
2022/10/04 04:10:42;;;;;;;26.25;17.50;;;9.90;99.90;;;;;;5065490;28;20050;-60
2022/10/04 04:13:18;;;;;;;21.10;15.20;;;9.80;99.90;;;;;;5062227;28;20044;-60
2022/10/04 04:15:44;;;;;;;25.88;16.73;;;9.80;99.90;;;;;;5055045;28;20053;-61
2022/10/04 04:18:21;;;;;;;33.47;19.55;;;9.80;99.90;;;;;;5059290;28;20052;-60
2022/10/04 04:20:50;;;;;;;25.95;17.73;;;9.80;99.90;;;;;;5062652;28;20040;-60
2022/10/04 04:23:26;;;;;;;30.40;18.45;;;9.80;99.90;;;;;;5051223;28;20083;-61
2022/10/04 04:25:59;;;;;;;25.90;18.85;;;9.80;99.90;;;;;;5068167;28;20056;-61
2022/10/04 04:28:31;;;;;;;25.67;18.23;;;9.80;99.90;;;;;;5049979;28;20056;-61
2022/10/04 04:31:13;;;;;;;27.45;18.40;;;9.80;99.90;;;;;;5053301;28;20045;-61
2022/10/04 04:33:55;;;;;;;31.38;20.45;;;9.80;99.90;;;;;;5062534;28;20048;-60
2022/10/04 04:36:21;;;;;;;26.20;18.80;;;9.80;99.90;;;;;;5055848;28;20054;-58
2022/10/04 04:41:36;;;;;;;31.15;18.92;;;9.70;99.90;;;;;;5055518;28;20087;-60
2022/10/04 04:44:03;;;;;;;31.83;20.23;;;9.70;99.90;;;;;;5062701;28;20045;-60
2022/10/04 04:46:30;;;;;;;30.38;18.90;;;9.70;99.90;;;;;;5042475;28;20049;-60
2022/10/04 04:49:03;;;;;;;26.17;19.30;;;9.70;99.90;;;;;;5063180;28;20153;-60
2022/10/04 04:51:31;;;;;;;27.65;19.13;;;9.70;99.90;;;;;;5059982;28;20502;-61
2022/10/04 04:53:59;;;;;;;27.25;19.45;;;9.70;99.90;;;;;;5064853;28;20634;-60
2022/10/04 04:56:27;;;;;;;31.45;20.60;;;9.70;99.90;;;;;;5051871;28;20302;-60
2022/10/04 04:58:58;;;;;;;26.67;19.63;;;9.70;99.90;;;;;;5062809;28;20140;-60
2022/10/04 05:01:31;;;;;;;34.42;21.00;;;9.70;99.90;;;;;;5060735;28;20125;-60
2022/10/04 05:04:25;;;;;;;27.95;20.23;;;9.70;99.90;;;;;;5057334;28;20056;-60
2022/10/04 05:07:13;;;;;;;23.45;19.05;;;9.60;99.90;;;;;;5053552;28;20068;-60
2022/10/04 05:09:39;;;;;;;27.55;19.73;;;9.60;99.90;;;;;;5068536;28;20091;-60
2022/10/04 05:12:18;;;;;;;34.17;20.55;;;9.50;99.90;;;;;;5063058;28;20131;-59
2022/10/04 05:14:48;;;;;;;30.08;20.30;;;9.50;99.90;;;;;;5072488;28;20052;-60
2022/10/04 05:17:33;;;;;;;28.48;20.02;;;9.50;99.90;;;;;;5063952;28;20119;-61
2022/10/04 05:20:01;;;;;;;29.40;20.63;;;9.50;99.90;;;;;;5069101;28;20090;-61
2022/10/04 05:22:28;;;;;;;28.83;21.27;;;9.50;99.90;;;;;;5070727;28;20491;-60
2022/10/04 05:24:59;;;;;;;29.48;21.08;;;9.50;99.90;;;;;;5068659;28;20438;-61
2022/10/04 05:27:35;;;;;;;34.47;22.00;;;9.50;99.90;;;;;;5059173;28;20415;-60
2022/10/04 05:30:13;;;;;;;28.10;21.48;;;9.50;99.90;;;;;;5064037;28;20047;-58
2022/10/04 05:33:03;;;;;;;31.23;20.92;;;9.50;99.90;;;;;;5064164;28;20055;-60
2022/10/04 05:35:47;;;;;;;31.95;20.40;;;9.50;99.90;;;;;;5073182;28;20048;-61
2022/10/04 05:38:25;;;;;;;30.65;20.17;;;9.40;99.90;;;;;;5060943;28;20048;-60
2022/10/04 05:41:06;;;;;;;30.15;22.00;;;9.40;99.90;;;;;;5063334;28;20878;-60
2022/10/04 05:43:37;;;;;;;29.33;21.25;;;9.40;99.90;;;;;;5061399;28;20462;-61
2022/10/04 05:46:18;;;;;;;27.52;21.55;;;9.50;99.90;;;;;;5050756;28;20504;-60
2022/10/04 05:48:46;;;;;;;27.85;20.17;;;9.50;99.90;;;;;;5070612;28;20067;-60
2022/10/04 05:51:21;;;;;;;31.42;21.20;;;9.40;99.90;;;;;;5055934;28;20460;-61
2022/10/04 05:53:48;;;;;;;30.60;21.98;;;9.50;99.90;;;;;;5054298;28;20048;-60
2022/10/04 05:56:29;;;;;;;30.50;22.13;;;9.50;99.90;;;;;;5061555;28;20048;-60
2022/10/04 05:59:34;;;;;;;30.42;22.10;;;9.50;99.90;;;;;;5060447;28;20051;-60
2022/10/04 06:02:02;;;;;;;31.23;21.27;;;9.50;99.90;;;;;;5058414;28;20051;-60
2022/10/04 06:04:42;;;;;;;30.90;21.42;;;9.50;99.90;;;;;;5057305;28;20579;-60
2022/10/04 06:07:19;;;;;;;33.85;21.67;;;9.50;99.90;;;;;;5057382;28;20096;-60
2022/10/04 06:10:09;;;;;;;36.88;22.77;;;9.60;99.90;;;;;;5059292;28;20059;-60
2022/10/04 06:12:52;;;;;;;33.70;23.30;;;9.70;99.90;;;;;;5054884;28;20189;-59
2022/10/04 06:15:42;;;;;;;32.22;22.48;;;9.80;99.90;;;;;;5051795;28;20056;-59
2022/10/04 06:18:07;;;;;;;30.50;23.00;;;9.80;99.90;;;;;;5058123;28;20060;-58
2022/10/04 06:21:09;;;;;;;31.77;23.17;;;10.00;99.90;;;;;;5060630;28;20399;-60
2022/10/04 06:23:45;;;;;;;27.92;23.17;;;10.10;99.90;;;;;;5053452;28;20048;-60
2022/10/04 06:26:33;;;;;;;31.73;22.58;;;10.40;99.90;;;;;;5059417;28;20129;-60
2022/10/04 06:29:08;;;;;;;25.17;21.05;;;10.50;99.90;;;;;;5029481;28;20057;-61
2022/10/04 06:31:43;;;;;;;32.83;20.95;;;10.60;99.90;;;;;;5050250;28;20448;-60
2022/10/04 06:34:29;;;;;;;29.95;21.08;;;10.90;99.90;;;;;;5044352;28;20063;-60
2022/10/04 06:37:14;;;;;;;26.15;18.75;;;11.00;99.90;;;;;;5026966;28;20057;-60
2022/10/04 06:39:58;;;;;;;23.15;18.70;;;11.20;99.90;;;;;;5027684;28;20050;-61
2022/10/04 06:42:33;;;;;;;26.08;18.13;;;11.30;99.90;;;;;;5026550;28;20045;-61
2022/10/04 06:45:20;;;;;;;24.10;18.17;;;11.50;99.90;;;;;;5032919;28;20053;-60
2022/10/04 06:48:05;;;;;;;23.08;17.77;;;11.50;99.90;;;;;;5010484;28;20048;-61
2022/10/04 06:51:01;;;;;;;19.92;17.85;;;11.50;99.90;;;;;;5020404;28;20565;-61
2022/10/04 06:53:55;;;;;;;20.83;17.95;;;11.40;99.90;;;;;;5036875;28;20100;-61
2022/10/04 06:56:39;;;;;;;23.20;18.92;;;11.20;99.90;;;;;;5024499;28;20049;-59
2022/10/04 06:59:30;;;;;;;27.02;19.70;;;11.10;99.90;;;;;;5026116;28;20080;-61
2022/10/04 07:02:02;;;;;;;28.98;20.40;;;11.00;99.90;;;;;;5057192;28;20075;-61
2022/10/04 07:04:45;;;;;;;28.88;20.13;;;11.00;99.90;;;;;;5028034;28;20045;-61
2022/10/04 07:07:34;;;;;;;26.50;19.27;;;10.90;99.90;;;;;;5011116;28;20131;-61
2022/10/04 07:10:29;;;;;;;26.20;20.70;;;11.00;99.90;;;;;;5032337;28;20052;-61
2022/10/04 07:13:13;;;;;;;26.15;19.45;;;11.00;99.90;;;;;;5033658;28;20053;-62
2022/10/04 07:16:04;;;;;;;24.65;19.88;;;11.10;99.90;;;;;;5023400;28;20057;-61
2022/10/04 07:18:42;;;;;;;27.13;19.38;;;11.20;99.90;;;;;;5038653;28;20400;-60
2022/10/04 07:21:15;;;;;;;25.95;19.95;;;11.40;99.90;;;;;;5024960;28;20514;-61
2022/10/04 07:23:55;;;;;;;27.52;20.05;;;11.60;99.90;;;;;;5041159;28;20140;-60
2022/10/04 07:26:46;;;;;;;28.27;20.00;;;11.90;99.90;;;;;;5044983;28;20102;-60
2022/10/04 07:29:25;;;;;;;25.40;18.65;;;12.30;99.90;;;;;;5041395;28;20064;-61
2022/10/04 07:32:04;;;;;;;25.23;19.15;;;12.50;99.90;;;;;;5040382;28;20049;-60
2022/10/04 07:34:35;;;;;;;24.50;17.58;;;12.50;99.90;;;;;;5022176;28;20057;-61
2022/10/04 07:37:09;;;;;;;21.42;18.25;;;12.50;99.90;;;;;;5043402;28;20048;-60
2022/10/04 07:39:58;;;;;;;27.48;19.13;;;12.40;99.90;;;;;;5022905;28;20084;-61
2022/10/04 07:42:36;;;;;;;23.05;19.50;;;12.30;99.90;;;;;;5037211;28;20046;-61
2022/10/04 07:45:20;;;;;;;20.52;17.73;;;12.20;99.90;;;;;;5044918;28;20504;-61
2022/10/04 07:47:48;;;;;;;24.48;18.05;;;12.20;99.90;;;;;;5035767;28;20391;-61
2022/10/04 07:50:35;;;;;;;26.52;18.50;;;12.20;99.90;;;;;;5043722;28;20041;-61
2022/10/04 07:53:07;;;;;;;25.38;17.10;;;12.10;99.90;;;;;;5023206;28;20127;-61
2022/10/04 07:55:53;;;;;;;24.95;18.45;;;12.10;99.90;;;;;;5043403;28;20585;-61
2022/10/04 07:58:49;;;;;;;25.88;19.08;;;12.20;99.90;;;;;;5043933;28;20084;-61
2022/10/04 08:01:57;;;;;;;25.02;19.67;;;12.20;99.90;;;;;;5031175;28;20064;-61
2022/10/04 08:04:36;;;;;;;22.23;17.05;;;12.60;99.90;;;;;;5056453;28;20061;-59
2022/10/04 08:07:12;;;;;;;19.70;16.75;;;12.80;99.90;;;;;;5053836;28;20140;-61
2022/10/04 08:09:57;;;;;;;26.23;18.35;;;12.90;99.90;;;;;;5046290;28;20068;-61
2022/10/04 08:12:49;;;;;;;24.23;17.92;;;12.90;99.90;;;;;;5056958;28;20175;-62
2022/10/04 08:15:24;;;;;;;22.58;17.45;;;12.90;99.90;;;;;;5048197;28;20057;-61
2022/10/04 08:18:09;;;;;;;25.08;18.23;;;13.00;99.90;;;;;;5053536;28;20048;-61
2022/10/04 08:20:56;;;;;;;24.40;16.10;;;13.20;99.90;;;;;;5062833;28;20088;-62
2022/10/04 08:23:43;;;;;;;23.50;16.25;;;13.40;99.90;;;;;;5050803;28;20049;-61
2022/10/04 08:26:30;;;;;;;20.83;16.30;;;13.60;99.90;;;;;;5047959;28;20071;-61
2022/10/04 08:29:42;;;;;;;21.13;15.93;;;13.70;99.90;;;;;;5063002;28;20093;-61
2022/10/04 08:32:26;;;;;;;18.08;13.77;;;13.70;99.90;;;;;;5055920;28;20129;-61
2022/10/04 08:35:11;;;;;;;19.55;16.17;;;13.70;99.90;;;;;;5058206;28;20049;-61
2022/10/04 08:38:15;;;;;;;20.33;15.48;;;13.70;99.90;;;;;;5055319;28;20053;-61
2022/10/04 08:41:11;;;;;;;18.10;15.02;;;13.60;99.90;;;;;;5060680;28;20040;-61
2022/10/04 08:44:15;;;;;;;20.85;16.15;;;13.60;99.90;;;;;;5069013;28;20048;-61
2022/10/04 08:47:20;;;;;;;22.08;14.98;;;13.50;99.90;;;;;;5061293;28;20084;-61
2022/10/04 08:50:09;;;;;;;18.60;15.02;;;13.50;99.90;;;;;;5045165;28;20098;-61
2022/10/04 08:52:56;;;;;;;20.27;14.95;;;13.60;99.90;;;;;;4998043;28;20081;-61
2022/10/04 08:55:27;;;;;;;21.02;15.00;;;13.70;99.90;;;;;;4994052;28;20056;-61
2022/10/04 08:58:23;;;;;;;16.15;14.55;;;13.90;99.90;;;;;;4997708;28;20053;-61
2022/10/04 09:00:55;;;;;;;16.83;13.63;;;13.90;99.90;;;;;;4998088;28;20457;-62
2022/10/04 09:03:34;;;;;;;18.50;14.77;;;14.00;99.90;;;;;;5008560;28;20041;-61
2022/10/04 09:06:48;;;;;;;19.20;16.70;;;14.00;99.90;;;;;;5017062;28;20053;-62
2022/10/04 09:09:41;;;;;;;;;;;14.10;99.90;;;;;;4994892;28;20062;-62
2022/10/04 09:12:34;;;;;;;18.83;15.32;;;14.30;99.90;;;;;;5015018;28;19925;-62
2022/10/04 09:15:18;;;;;;;21.25;15.57;;;14.30;99.90;;;;;;5002517;28;20045;-62
2022/10/04 09:18:09;;;;;;;21.55;16.30;;;14.30;99.90;;;;;;5017240;28;20523;-62
2022/10/04 09:20:58;;;;;;;24.75;16.65;;;14.40;99.90;;;;;;5017414;28;20517;-63
2022/10/04 09:23:30;;;;;;;21.35;16.35;;;14.50;99.90;;;;;;5018280;28;20548;-62
2022/10/04 09:26:32;;;;;;;19.73;15.52;;;14.60;99.90;;;;;;5018809;28;20056;-63
2022/10/04 09:29:09;;;;;;;20.50;16.33;;;14.70;99.90;;;;;;5021710;28;20141;-62
2022/10/04 09:31:57;;;;;;;21.00;16.05;;;14.70;99.90;;;;;;5039098;28;20044;-63
2022/10/04 09:34:38;;;;;;;20.08;16.17;;;14.80;99.90;;;;;;5033377;28;20048;-63
2022/10/04 09:37:28;;;;;;;21.27;16.55;;;14.70;99.90;;;;;;5041167;28;20423;-63
2022/10/04 09:40:07;;;;;;;22.38;16.15;;;14.90;99.90;;;;;;5033885;28;20514;-62
2022/10/04 09:43:05;;;;;;;19.42;17.20;;;14.90;99.90;;;;;;5032223;28;20443;-63
2022/10/04 09:45:46;;;;;;;21.23;17.08;;;15.00;99.90;;;;;;5039077;28;20049;-61
2022/10/04 09:48:24;;;;;;;22.30;16.92;;;14.90;99.90;;;;;;5041636;28;20056;-63
2022/10/04 09:50:58;;;;;;;19.25;17.30;;;14.90;99.90;;;;;;5019605;28;20061;-63
2022/10/04 09:53:45;;;;;;;21.02;16.75;;;15.00;99.90;;;;;;5042230;28;20052;-63
2022/10/04 09:56:44;;;;;;;21.58;18.08;;;15.00;99.90;;;;;;5041943;28;20099;-62
2022/10/04 09:59:20;;;;;;;20.38;18.27;;;15.10;99.90;;;;;;5038331;28;20094;-62
2022/10/04 10:02:13;;;;;;;22.65;18.25;;;15.20;99.90;;;;;;5042662;28;20055;-63
2022/10/04 10:04:39;;;;;;;22.67;18.05;;;15.20;99.90;;;;;;5044162;28;20413;-63
2022/10/04 10:07:27;;;;;;;24.75;19.30;;;15.40;99.90;;;;;;5050902;28;20053;-63
2022/10/04 10:15:59;;;;;;;24.92;18.42;;;15.40;99.90;;;;;;5051661;28;20048;-63
2022/10/04 10:18:50;;;;;;;21.80;19.23;;;15.40;99.90;;;;;;5060681;28;20392;-62
2022/10/04 10:21:51;;;;;;;24.20;17.85;;;15.40;99.90;;;;;;5060373;28;20052;-63
2022/10/04 10:24:35;;;;;;;20.25;18.17;;;15.60;99.90;;;;;;5044051;28;20078;-64
2022/10/04 10:27:04;;;;;;;21.15;17.35;;;15.80;99.90;;;;;;5061557;28;20559;-64
2022/10/04 10:30:07;;;;;;;19.30;16.77;;;16.00;99.90;;;;;;5061288;28;20052;-64
2022/10/04 10:33:02;;;;;;;18.08;15.88;;;16.10;99.90;;;;;;5059050;28;20126;-64
2022/10/04 10:35:41;;;;;;;18.63;15.73;;;16.20;99.90;;;;;;5055433;28;20523;-63
2022/10/04 10:38:24;;;;;;;18.98;16.40;;;16.20;99.90;;;;;;5060730;28;20044;-64
2022/10/04 10:41:07;;;;;;;21.33;16.27;;;16.10;99.90;;;;;;5058935;28;20077;-62
2022/10/04 10:43:51;;;;;;;;;;;16.00;99.90;;;;;;5060194;28;20044;-62
2022/10/04 10:46:36;;;;;;;;;;;15.90;99.90;;;;;;5060979;28;20355;-63
2022/10/04 10:49:20;;;;;;;18.13;15.65;;;15.90;99.90;;;;;;5059707;28;19978;-60
2022/10/04 10:52:03;;;;;;;23.38;15.23;;;15.90;99.90;;;;;;5058834;28;20056;-61
2022/10/04 10:55:07;;;;;;;21.35;16.42;;;15.90;99.90;;;;;;5059018;28;20333;-61
2022/10/04 10:57:51;;;;;;;16.48;14.52;;;15.70;99.90;;;;;;5060150;28;20053;-64
2022/10/04 11:00:24;;;;;;;17.42;14.77;;;15.50;99.90;;;;;;5056957;28;20129;-63
2022/10/04 11:03:06;;;;;;;17.48;15.15;;;15.70;99.90;;;;;;5055790;28;20052;-62
2022/10/04 11:06:12;;;;;;;20.80;14.95;;;15.80;99.90;;;;;;5052330;28;20048;-61
2022/10/04 11:09:00;;;;;;;15.90;14.02;;;15.90;99.90;;;;;;5048710;28;20072;-63
2022/10/04 11:11:44;;;;;;;17.58;14.07;;;15.90;99.90;;;;;;5056478;28;20052;-63
2022/10/04 11:14:35;;;;;;;18.00;14.57;;;16.10;99.90;;;;;;5060358;28;20095;-62
2022/10/04 11:17:02;;;;;;;16.70;14.48;;;16.20;99.90;;;;;;5060105;28;20048;-63
2022/10/04 11:19:47;;;;;;;21.55;14.85;;;16.30;99.90;;;;;;5062982;28;20047;-64
2022/10/04 11:22:48;;;;;;;16.20;13.43;;;16.30;99.90;;;;;;5061379;28;20056;-64
2022/10/04 11:25:33;;;;;;;14.85;12.65;;;16.20;99.90;;;;;;5059799;28;20052;-62
2022/10/04 11:28:25;;;;;;;15.43;13.43;;;16.20;99.90;;;;;;5053660;28;20083;-63
2022/10/04 11:31:09;;;;;;;17.38;14.02;;;16.30;99.90;;;;;;5059419;28;20047;-62
2022/10/04 11:33:57;;;;;;;16.52;13.32;;;16.20;99.90;;;;;;5058219;28;20045;-63
2022/10/04 11:36:34;;;;;;;16.77;13.35;;;16.30;99.90;;;;;;5055659;28;20045;-63
2022/10/04 11:39:40;;;;;;;19.17;13.82;;;16.40;99.90;;;;;;5056543;28;20045;-64
2022/10/04 11:42:55;;;;;;;15.45;13.27;;;16.30;99.90;;;;;;5056979;28;20113;-63
2022/10/04 11:45:45;;;;;;;15.40;13.45;;;16.20;99.90;;;;;;5058358;28;20052;-62
2022/10/04 11:48:33;;;;;;;16.98;13.23;;;16.20;99.90;;;;;;5059274;28;20095;-62
2022/10/04 11:51:25;;;;;;;19.60;13.43;;;16.30;99.90;;;;;;5054550;28;20423;-62
2022/10/04 11:54:06;;;;;;;15.40;12.80;;;16.40;99.90;;;;;;5057014;28;20075;-63
2022/10/04 11:57:03;;;;;;;18.10;12.32;;;16.40;99.90;;;;;;5058387;28;20044;-62
2022/10/04 11:59:49;;;;;;;16.90;13.20;;;16.30;99.90;;;;;;5060254;28;20469;-63
2022/10/04 12:02:43;;;;;;;21.23;12.98;;;16.40;99.90;;;;;;5061473;28;20462;-62
2022/10/04 12:05:37;;;;;;;14.35;11.93;;;16.50;99.90;;;;;;5062458;28;20047;-62
2022/10/04 12:08:24;;;;;;;15.73;12.63;;;16.50;99.90;;;;;;4999887;28;20066;-62
2022/10/04 12:11:11;;;;;;;20.77;12.32;;;16.60;99.90;;;;;;4999499;28;20061;-62
2022/10/04 12:14:02;;;;;;;17.08;11.57;;;16.50;99.90;;;;;;4952456;28;20110;-62
2022/10/04 12:17:07;;;;;;;13.15;11.75;;;16.50;99.90;;;;;;4950520;28;20234;-64
2022/10/04 12:19:51;;;;;;;14.68;11.52;;;16.40;99.90;;;;;;4992412;28;20469;-63
2022/10/04 12:22:41;;;;;;;13.50;11.82;;;16.60;99.90;;;;;;4995991;28;20091;-64
2022/10/04 12:25:25;;;;;;;16.17;12.55;;;16.60;99.90;;;;;;5000671;28;20057;-63
2022/10/04 12:28:19;;;;;;;13.27;11.88;;;16.60;99.90;;;;;;5000783;28;20059;-64
2022/10/04 12:31:21;;;;;;;15.95;12.10;;;16.60;99.90;;;;;;4980687;28;20051;-63
2022/10/04 12:34:13;;;;;;;15.23;12.55;;;16.70;99.90;;;;;;4938572;28;20200;-63
2022/10/04 12:37:19;;;;;;;16.85;11.70;;;16.90;99.90;;;;;;4926957;29;20085;-63
2022/10/04 12:40:03;;;;;;;12.68;10.02;;;17.00;99.90;;;;;;4938147;29;20636;-63
2022/10/04 12:43:14;;;;;;;14.73;11.52;;;17.10;99.90;;;;;;4924302;29;20103;-63
2022/10/04 12:45:51;;;;;;;15.50;11.32;;;17.10;99.90;;;;;;4969249;28;20156;-63
2022/10/04 12:48:34;;;;;;;16.55;11.93;;;16.90;99.90;;;;;;4980270;28;20122;-63
2022/10/04 12:51:18;;;;;;;18.42;12.45;;;16.80;99.90;;;;;;4979601;28;20233;-63
2022/10/04 12:53:58;;;;;;;12.98;10.70;;;16.80;99.90;;;;;;4958026;28;20133;-63
2022/10/04 12:56:30;;;;;;;13.88;10.77;;;16.70;99.90;;;;;;4973982;28;20141;-63
2022/10/04 12:59:05;;;;;;;14.63;10.90;;;16.70;99.90;;;;;;4980848;28;20061;-64
2022/10/04 13:02:03;;;;;;;15.95;12.52;;;16.80;99.90;;;;;;4978872;28;20166;-63
2022/10/04 13:04:50;;;;;;;15.48;11.07;;;16.80;99.90;;;;;;4962344;28;20422;-64
2022/10/04 13:07:57;;;;;;;16.33;11.15;;;16.70;99.90;;;;;;4980232;28;20074;-63
2022/10/04 13:10:53;;;;;;;17.92;12.05;;;16.60;99.90;;;;;;5035289;28;20064;-63
2022/10/04 13:13:40;;;;;;;13.88;10.75;;;16.40;99.90;;;;;;4991747;28;20057;-63
2022/10/04 13:16:41;;;;;;;13.43;10.02;;;16.30;99.90;;;;;;4999241;28;20381;-62
2022/10/04 13:19:28;;;;;;;15.88;12.05;;;16.50;99.90;;;;;;5001297;28;20484;-63
2022/10/04 13:22:03;;;;;;;20.95;11.40;;;16.70;99.90;;;;;;4989952;28;20092;-61
2022/10/04 13:25:13;;;;;;;12.80;10.93;;;16.80;99.90;;;;;;4996004;28;20065;-62
2022/10/04 13:27:39;;;;;;;14.50;9.75;;;16.90;99.90;;;;;;4999391;28;20050;-63
2022/10/04 13:30:16;;;;;;;12.35;10.98;;;16.90;99.90;;;;;;5011496;28;20108;-61
2022/10/04 13:33:09;;;;;;;15.15;11.13;;;17.00;99.90;;;;;;4987453;28;20049;-63
2022/10/04 13:35:40;;;;;;;12.90;10.23;;;17.00;99.90;;;;;;4960256;28;20105;-61
2022/10/04 13:38:19;;;;;;;15.18;10.10;;;16.90;99.90;;;;;;4960370;28;20598;-63
2022/10/04 13:41:33;;;;;;;11.57;8.55;;;16.90;99.90;;;;;;4948205;28;20055;-63
2022/10/04 13:44:20;;;;;;;11.98;9.68;;;16.90;99.90;;;;;;4949244;28;20086;-63
2022/10/04 13:47:15;;;;;;;13.23;9.25;;;16.90;99.90;;;;;;4960396;28;20601;-63
2022/10/04 13:50:03;;;;;;;13.38;9.63;;;16.70;99.90;;;;;;4973484;28;20066;-63
2022/10/04 13:59:16;;;;;;;13.18;9.50;;;16.60;99.90;;;;;;4979064;28;20054;-64
2022/10/04 14:02:14;;;;;;;11.60;8.80;;;16.60;99.90;;;;;;4980718;28;20061;-65
2022/10/04 14:05:26;;;;;;;14.02;9.68;;;16.60;99.90;;;;;;4979179;28;20057;-64
2022/10/04 14:08:11;;;;;;;14.25;8.90;;;16.70;99.90;;;;;;4978226;28;20596;-63
2022/10/04 14:10:55;;;;;;;13.77;9.52;;;16.70;99.90;;;;;;4954912;28;20570;-63
2022/10/04 14:13:33;;;;;;;14.20;8.75;;;16.80;99.90;;;;;;5042382;28;20059;-63
2022/10/04 14:16:33;;;;;;;11.85;9.30;;;16.90;99.90;;;;;;5061228;28;20465;-63
2022/10/04 14:19:14;;;;;;;13.70;9.35;;;16.80;99.90;;;;;;5060445;28;20542;-63
2022/10/04 14:22:04;;;;;;;19.73;12.10;;;16.70;99.90;;;;;;5060552;28;20118;-63
2022/10/04 14:24:40;;;;;;;18.20;10.05;;;16.60;99.90;;;;;;5060305;28;20503;-63
2022/10/04 14:27:31;;;;;;;16.02;10.32;;;16.60;99.90;;;;;;5060733;28;20044;-63
2022/10/04 14:30:16;;;;;;;20.63;13.30;;;16.60;99.90;;;;;;5060729;28;20052;-62
2022/10/04 14:33:10;;;;;;;22.23;14.95;;;16.60;99.90;;;;;;5061232;28;20054;-63
2022/10/04 14:35:55;;;;;;;21.88;14.90;;;16.60;99.90;;;;;;5059250;28;20048;-63